Randolph Air Force Base
KRND : now visible

Airfield :











YOU CAN JOIN US ON...

 
LOGIN :

Register | Disclaimer

   EN    FR    IT 

 









Legend :    VFR   Marginal VFR   IFR   Intensive IFR   Very Intensive IFR
Visi :
Ceiling :
>= 8 km
>= 3000ft
5 to 8 km
1000 to 3000 ft
1500m to 5 km
500 to 1000 ft
800 to 1500m
200 to 500 ft
< 800m
< 200 ft
Symbols :   Thunderstorms  Fog  Heavy snow  Heavy precipitations  Wind > 20 kt






- Airport Elevation : 761 ft


KRND - Randolph Air Force Base

CURRENT METAR :
  • 192256Z AUTO 15007KT 10SM CLR 23/16 A2992 RMK AO2 SLP129 T02280156

EXPIRED METARs :
  • 192156Z AUTO 18007KT 10SM CLR 24/14 A2993 RMK AO2 SLP132 T02400144
  • 192056Z AUTO 16009KT 10SM CLR 24/15 A2994 RMK AO2 SLP136 T02380148 57025

TAF AMD TAF KRND
Valid from the 19 at 23:00 until the 21 at 00:00 UTC


192305Z 1923/2024 18006KT 9999 SKC QNH2987INS
BECMG 2006/2007 15006KT 8000 BR BKN003 QNH2994INS
BECMG 2016/2017 15012KT 8000 BR BKN010 QNH2998INS
BECMG 2017/2018 16020G25KT 9999 NSW BKN010 QNH2992INS
BECMG 2019/2020 16020G30KT 9999 BKN030 QNH2985INS
BECMG 2022/2023 15012KT 9999 BKN030 QNH2985INS TX25/2018Z TN14/2010Z LAST NO AMDS AFT 2001 NEXT 2010



MET'MAP, your aeronautical weather chart ! - Copyright ORBIFLY December 2007 - Disclaimer

ORBIFLY MET'MAP TEAM :

Programming & Development : Alexandra Zaïnal
Concept & Development : Baudouin d'Aumeries
Co-Development & Prog : Marc-Olivier Méhu
Technical & hardware support : Manuel Goepfert

Contact : metmap@orbifly.com




SOURCES & CREDITS :

   NOAA       Earth
Advisory